Time,TemperatureF,DewpointF,PressureIn,WindDirection,WindDirectionDegrees,WindSpeedMPH,WindSpeedGustMPH,Humidity,HourlyPrecipIn,Conditions,Clouds,dailyrainin,SoftwareType,DateUTC
2013-04-12 00:01:00,48.6,44.0,29.89,NNW,347,0.0,0.0,84,0.00,,,0.00,WeatherCatV1.13B119,2013-04-12 05:01:00,
2013-04-12 00:06:00,48.5,43.9,29.89,NNW,347,0.0,0.0,84,0.00,,,0.00,WeatherCatV1.13B119,2013-04-12 05:06:00,
2013-04-12 00:11:00,48.3,43.7,29.89,NNW,347,0.0,0.0,84,0.00,,,0.00,WeatherCatV1.13B119,2013-04-12 05:11:00,
2013-04-12 00:16:00,48.1,43.8,29.89,NNW,347,0.0,0.0,85,0.00,,,0.00,WeatherCatV1.13B119,2013-04-12 05:16:00,
2013-04-12 00:21:00,47.7,43.7,29.90,NNW,347,0.0,0.0,86,0.00,,,0.00,WeatherCatV1.13B119,2013-04-12 05:21:00,
2013-04-12 00:26:00,47.5,43.8,29.90,NNW,347,0.0,0.0,87,0.00,,,0.00,WeatherCatV1.13B119,2013-04-12 05:26:00,
2013-04-12 00:31:00,47.3,43.6,29.90,NNW,347,0.0,0.0,87,0.00,,,0.00,WeatherCatV1.13B119,2013-04-12 05:31:00,
2013-04-12 00:36:00,47.1,43.7,29.90,NNW,347,0.0,0.0,88,0.00,,,0.00,WeatherCatV1.13B119,2013-04-12 05:36:00,
2013-04-12 00:41:00,47.1,43.7,29.90,NNW,347,0.0,0.0,88,0.00,,,0.00,WeatherCatV1.13B119,2013-04-12 05:41:00,
2013-04-12 00:46:00,47.0,43.9,29.90,NNW,347,0.0,0.0,89,0.00,,,0.00,WeatherCatV1.13B119,2013-04-12 05:46:00,
2013-04-12 00:51:00,47.1,44.3,29.90,NNW,347,0.0,0.0,90,0.00,,,0.00,WeatherCatV1.13B119,2013-04-12 05:51:00,
2013-04-12 00:56:00,47.2,44.4,29.90,NNW,347,0.0,0.0,90,0.00,,,0.00,WeatherCatV1.13B119,2013-04-12 05:56:00,
2013-04-12 01:01:00,47.1,44.0,29.90,NNW,347,0.0,1.0,89,0.00,,,0.00,WeatherCatV1.13B119,2013-04-12 06:01:00,
2013-04-12 01:06:00,46.7,43.9,29.90,NNW,347,0.0,0.0,90,0.00,,,0.00,WeatherCatV1.13B119,2013-04-12 06:06:00,
2013-04-12 01:11:00,46.6,43.8,29.90,NNW,347,0.0,0.0,90,0.00,,,0.00,WeatherCatV1.13B119,2013-04-12 06:11:00,
2013-04-12 01:16:00,46.7,44.2,29.90,NNW,347,0.0,0.0,91,0.00,,,0.00,WeatherCatV1.13B119,2013-04-12 06:16:00,
2013-04-12 01:21:00,46.8,44.6,29.90,NNW,347,0.0,0.0,92,0.00,,,0.00,WeatherCatV1.13B119,2013-04-12 06:21:00,
2013-04-12 01:26:00,46.9,44.7,29.90,NNW,347,0.0,0.0,92,0.00,,,0.00,WeatherCatV1.13B119,2013-04-12 06:26:00,
2013-04-12 01:31:00,46.8,44.3,29.90,NNW,347,0.0,0.0,91,0.00,,,0.00,WeatherCatV1.13B119,2013-04-12 06:31:00,
2013-04-12 01:36:00,46.5,43.7,29.90,NNW,347,0.0,0.0,90,0.00,,,0.00,WeatherCatV1.13B119,2013-04-12 06:36:00,
2013-04-12 01:41:00,46.2,43.7,29.90,NNW,347,0.0,0.0,91,0.00,,,0.00,WeatherCatV1.13B119,2013-04-12 06:41:00,
2013-04-12 01:46:00,46.0,43.5,29.90,NNW,347,0.0,0.0,91,0.00,,,0.00,WeatherCatV1.13B119,2013-04-12 06:46:00,
2013-04-12 01:51:00,45.8,43.6,29.90,NNW,347,0.0,0.0,92,0.00,,,0.00,WeatherCatV1.13B119,2013-04-12 06:51:00,
2013-04-12 01:56:00,45.7,43.5,29.90,NNW,347,0.0,0.0,92,0.00,,,0.00,WeatherCatV1.13B119,2013-04-12 06:56:00,
2013-04-12 02:01:00,45.5,43.6,29.90,NNW,347,0.0,0.0,93,0.00,,,0.00,WeatherCatV1.13B119,2013-04-12 07:01:00,
2013-04-12 02:06:00,45.5,43.6,29.90,NNW,347,0.0,0.0,93,0.00,,,0.00,WeatherCatV1.13B119,2013-04-12 07:06:00,
2013-04-12 02:11:00,45.6,44.0,29.90,NNW,347,0.0,0.0,94,0.00,,,0.00,WeatherCatV1.13B119,2013-04-12 07:11:00,
2013-04-12 02:16:00,45.7,44.3,29.90,NNW,347,0.0,0.0,95,0.00,,,0.00,WeatherCatV1.13B119,2013-04-12 07:16:00,
2013-04-12 02:21:00,45.9,44.5,29.90,NNW,347,0.0,0.0,95,0.00,,,0.00,WeatherCatV1.13B119,2013-04-12 07:21:00,
2013-04-12 02:26:00,45.9,44.3,29.90,NNW,347,0.0,0.0,94,0.00,,,0.00,WeatherCatV1.13B119,2013-04-12 07:26:00,
2013-04-12 02:31:00,46.1,44.7,29.90,NNW,347,0.0,0.0,95,0.00,,,0.00,WeatherCatV1.13B119,2013-04-12 07:31:00,
2013-04-12 02:36:00,46.3,44.7,29.89,NNE,19,0.0,0.0,94,0.00,,,0.00,WeatherCatV1.13B119,2013-04-12 07:36:00,
2013-04-12 02:41:00,46.3,44.1,29.89,NNE,19,0.0,0.0,92,0.00,,,0.00,WeatherCatV1.13B119,2013-04-12 07:41:00,
2013-04-12 02:46:00,46.0,43.8,29.89,NNE,18,0.0,1.0,92,0.00,,,0.00,WeatherCatV1.13B119,2013-04-12 07:46:00,
2013-04-12 02:51:00,45.6,43.4,29.89,NNE,18,0.0,0.0,92,0.00,,,0.00,WeatherCatV1.13B119,2013-04-12 07:51:00,
2013-04-12 02:56:00,45.3,43.4,29.89,NNE,18,0.0,0.0,93,0.00,,,0.00,WeatherCatV1.13B119,2013-04-12 07:56:00,
2013-04-12 03:01:00,45.3,43.4,29.89,NNE,18,0.0,0.0,93,0.00,,,0.00,WeatherCatV1.13B119,2013-04-12 08:01:00,
2013-04-12 03:06:00,45.2,43.3,29.89,NNE,18,0.0,1.0,93,0.00,,,0.00,WeatherCatV1.13B119,2013-04-12 08:06:00,
2013-04-12 03:11:00,45.0,43.1,29.89,NNE,18,0.0,0.0,93,0.00,,,0.00,WeatherCatV1.13B119,2013-04-12 08:11:00,
2013-04-12 03:16:00,44.7,42.8,29.89,NNE,18,0.0,0.0,93,0.00,,,0.00,WeatherCatV1.13B119,2013-04-12 08:16:00,
2013-04-12 03:21:00,44.6,43.0,29.89,NNE,18,0.0,0.0,94,0.00,,,0.00,WeatherCatV1.13B119,2013-04-12 08:21:00,
2013-04-12 03:26:00,44.5,42.9,29.89,NNE,18,0.0,0.0,94,0.00,,,0.00,WeatherCatV1.13B119,2013-04-12 08:26:00,
2013-04-12 03:31:00,44.4,42.8,29.89,NNE,18,0.0,0.0,94,0.00,,,0.00,WeatherCatV1.13B119,2013-04-12 08:31:00,
2013-04-12 03:36:00,44.1,42.5,29.89,NNE,18,0.0,0.0,94,0.00,,,0.00,WeatherCatV1.13B119,2013-04-12 08:36:00,
2013-04-12 03:41:00,44.0,42.4,29.89,NNE,18,0.0,0.0,94,0.00,,,0.00,WeatherCatV1.13B119,2013-04-12 08:41:00,
2013-04-12 03:46:00,43.9,42.6,29.88,NNE,18,0.0,0.0,95,0.00,,,0.00,WeatherCatV1.13B119,2013-04-12 08:46:00,
2013-04-12 03:51:00,43.9,42.3,29.88,NNE,18,0.0,0.0,94,0.00,,,0.00,WeatherCatV1.13B119,2013-04-12 08:51:00,
2013-04-12 03:56:00,43.7,42.1,29.88,NNE,18,0.0,0.0,94,0.00,,,0.00,WeatherCatV1.13B119,2013-04-12 08:56:00,
2013-04-12 04:01:00,43.5,42.2,29.88,NNE,18,0.0,0.0,95,0.00,,,0.00,WeatherCatV1.13B119,2013-04-12 09:01:00,
2013-04-12 04:06:00,43.3,41.7,29.88,NNE,18,0.0,0.0,94,0.00,,,0.00,WeatherCatV1.13B119,2013-04-12 09:06:00,
2013-04-12 04:11:00,43.1,41.5,29.88,NNE,18,0.0,0.0,94,0.00,,,0.00,WeatherCatV1.13B119,2013-04-12 09:11:00,
2013-04-12 04:16:00,42.9,41.3,29.88,NNE,18,0.0,0.0,94,0.00,,,0.00,WeatherCatV1.13B119,2013-04-12 09:16:00,
2013-04-12 04:21:00,42.8,41.5,29.88,NNE,18,0.0,0.0,95,0.00,,,0.00,WeatherCatV1.13B119,2013-04-12 09:21:00,
2013-04-12 04:26:00,42.7,41.4,29.88,NNE,18,0.0,0.0,95,0.00,,,0.00,WeatherCatV1.13B119,2013-04-12 09:26:00,
2013-04-12 04:31:00,42.9,41.8,29.88,NNE,18,0.0,0.0,96,0.00,,,0.00,WeatherCatV1.13B119,2013-04-12 09:31:00,
2013-04-12 04:36:00,42.9,41.8,29.88,NNE,18,0.0,0.0,96,0.00,,,0.00,WeatherCatV1.13B119,2013-04-12 09:36:00,
2013-04-12 04:41:00,42.9,41.8,29.88,NNE,18,0.0,0.0,96,0.00,,,0.00,WeatherCatV1.13B119,2013-04-12 09:41:00,
2013-04-12 04:46:00,42.6,41.3,29.88,NNE,18,0.0,1.0,95,0.00,,,0.00,WeatherCatV1.13B119,2013-04-12 09:46:00,
2013-04-12 04:51:00,42.4,41.1,29.88,NNE,18,0.0,1.0,95,0.00,,,0.00,WeatherCatV1.13B119,2013-04-12 09:51:00,
2013-04-12 04:56:00,42.2,40.9,29.88,NNE,18,0.0,0.0,95,0.00,,,0.00,WeatherCatV1.13B119,2013-04-12 09:56:00,
2013-04-12 05:01:00,42.1,40.8,29.89,NNE,18,0.0,0.0,95,0.00,,,0.00,WeatherCatV1.13B119,2013-04-12 10:01:00,
2013-04-12 05:06:00,42.0,40.7,29.89,NNE,18,0.0,0.0,95,0.00,,,0.00,WeatherCatV1.13B119,2013-04-12 10:06:00,
2013-04-12 05:11:00,42.0,40.9,29.89,NNE,18,0.0,0.0,96,0.00,,,0.00,WeatherCatV1.13B119,2013-04-12 10:11:00,
2013-04-12 05:16:00,42.1,41.0,29.89,NNE,18,0.0,0.0,96,0.00,,,0.00,WeatherCatV1.13B119,2013-04-12 10:16:00,
2013-04-12 05:21:00,42.2,41.1,29.89,NNE,18,0.0,0.0,96,0.00,,,0.00,WeatherCatV1.13B119,2013-04-12 10:21:00,
2013-04-12 05:26:00,42.2,41.1,29.89,NNE,18,0.0,0.0,96,0.00,,,0.00,WeatherCatV1.13B119,2013-04-12 10:26:00,
2013-04-12 05:31:00,42.0,40.9,29.89,NNE,18,0.0,0.0,96,0.00,,,0.00,WeatherCatV1.13B119,2013-04-12 10:31:00,
2013-04-12 05:36:00,41.9,40.8,29.89,NNE,18,0.0,0.0,96,0.00,,,0.00,WeatherCatV1.13B119,2013-04-12 10:36:00,
2013-04-12 05:41:00,41.7,40.6,29.89,NNE,18,0.0,0.0,96,0.00,,,0.00,WeatherCatV1.13B119,2013-04-12 10:41:00,
2013-04-12 05:46:00,41.7,40.6,29.89,NNE,18,0.0,0.0,96,0.00,,,0.00,WeatherCatV1.13B119,2013-04-12 10:46:00,
2013-04-12 05:51:00,41.6,40.5,29.89,NNE,18,0.0,0.0,96,0.00,,,0.00,WeatherCatV1.13B119,2013-04-12 10:51:00,
2013-04-12 05:56:00,41.6,40.5,29.89,NNE,18,0.0,0.0,96,0.00,,,0.00,WeatherCatV1.13B119,2013-04-12 10:56:00,
2013-04-12 06:01:00,41.6,40.5,29.89,NNE,18,0.0,0.0,96,0.00,,,0.00,WeatherCatV1.13B119,2013-04-12 11:01:00,
2013-04-12 06:06:00,41.6,40.5,29.90,NNE,18,0.0,0.0,96,0.00,,,0.00,WeatherCatV1.13B119,2013-04-12 11:06:00,
2013-04-12 06:11:00,41.6,40.5,29.90,NNE,18,0.0,0.0,96,0.00,,,0.00,WeatherCatV1.13B119,2013-04-12 11:11:00,
2013-04-12 06:16:00,41.4,40.3,29.90,NNE,18,0.0,0.0,96,0.00,,,0.00,WeatherCatV1.13B119,2013-04-12 11:16:00,
2013-04-12 06:21:00,41.5,40.4,29.91,NNE,18,0.0,0.0,96,0.00,,,0.00,WeatherCatV1.13B119,2013-04-12 11:21:00,
2013-04-12 06:26:00,41.5,40.4,29.91,NNE,18,0.0,0.0,96,0.00,,,0.00,WeatherCatV1.13B119,2013-04-12 11:26:00,
2013-04-12 06:31:00,41.4,40.3,29.91,NNE,18,0.0,1.0,96,0.00,,,0.00,WeatherCatV1.13B119,2013-04-12 11:31:00,
2013-04-12 06:36:00,41.4,40.3,29.92,NNE,18,0.0,0.0,96,0.00,,,0.00,WeatherCatV1.13B119,2013-04-12 11:36:00,
2013-04-12 06:41:00,41.2,40.1,29.92,NNE,18,0.0,0.0,96,0.00,,,0.00,WeatherCatV1.13B119,2013-04-12 11:41:00,
2013-04-12 06:46:00,41.1,40.0,29.92,NNE,18,0.0,0.0,96,0.00,,,0.00,WeatherCatV1.13B119,2013-04-12 11:46:00,
2013-04-12 06:51:00,40.9,39.8,29.92,NNE,18,0.0,0.0,96,0.00,,,0.00,WeatherCatV1.13B119,2013-04-12 11:51:00,
2013-04-12 06:56:00,40.9,39.8,29.92,NNE,18,0.0,0.0,96,0.00,,,0.00,WeatherCatV1.13B119,2013-04-12 11:56:00,
2013-04-12 07:01:00,40.7,39.6,29.92,NNE,18,0.0,0.0,96,0.00,,,0.00,WeatherCatV1.13B119,2013-04-12 12:01:00,
2013-04-12 07:06:00,40.7,39.6,29.93,NNE,18,0.0,0.0,96,0.00,,,0.00,WeatherCatV1.13B119,2013-04-12 12:06:00,
2013-04-12 07:11:00,40.5,39.5,29.93,NNE,18,0.0,0.0,96,0.00,,,0.00,WeatherCatV1.13B119,2013-04-12 12:11:00,
2013-04-12 07:16:00,40.5,39.5,29.93,NNE,18,0.0,0.0,96,0.00,,,0.00,WeatherCatV1.13B119,2013-04-12 12:16:00,
2013-04-12 07:21:00,40.4,39.4,29.94,NNE,18,0.0,0.0,96,0.00,,,0.00,WeatherCatV1.13B119,2013-04-12 12:21:00,
2013-04-12 07:26:00,40.6,39.8,29.94,NNE,18,0.0,0.0,97,0.00,,,0.00,WeatherCatV1.13B119,2013-04-12 12:26:00,
2013-04-12 07:31:00,40.7,39.9,29.94,NNE,18,0.0,0.0,97,0.00,,,0.00,WeatherCatV1.13B119,2013-04-12 12:31:00,
2013-04-12 07:36:00,40.9,40.1,29.94,NNE,18,0.0,0.0,97,0.00,,,0.00,WeatherCatV1.13B119,2013-04-12 12:36:00,
2013-04-12 07:41:00,41.2,40.4,29.94,NNE,18,0.0,0.0,97,0.00,,,0.00,WeatherCatV1.13B119,2013-04-12 12:41:00,
2013-04-12 07:46:00,41.5,40.7,29.95,NNE,18,0.0,0.0,97,0.00,,,0.00,WeatherCatV1.13B119,2013-04-12 12:46:00,
2013-04-12 07:51:00,41.9,41.4,29.95,NNE,18,0.0,0.0,98,0.00,,,0.00,WeatherCatV1.13B119,2013-04-12 12:51:00,
2013-04-12 07:56:00,42.4,41.9,29.95,NNE,18,0.0,0.0,98,0.00,,,0.00,WeatherCatV1.13B119,2013-04-12 12:56:00,
2013-04-12 08:01:00,42.8,42.3,29.95,NNE,18,0.0,0.0,98,0.00,,,0.00,WeatherCatV1.13B119,2013-04-12 13:01:00,
2013-04-12 08:06:00,43.4,42.9,29.95,NNE,18,0.0,0.0,98,0.00,,,0.00,WeatherCatV1.13B119,2013-04-12 13:06:00,
2013-04-12 08:11:00,43.9,43.4,29.95,NNE,18,0.0,0.0,98,0.00,,,0.00,WeatherCatV1.13B119,2013-04-12 13:11:00,
2013-04-12 08:16:00,44.6,44.1,29.96,NNE,18,0.0,0.0,98,0.00,,,0.00,WeatherCatV1.13B119,2013-04-12 13:16:00,
2013-04-12 08:21:00,45.0,44.5,29.96,NNE,18,0.0,0.0,98,0.00,,,0.00,WeatherCatV1.13B119,2013-04-12 13:21:00,
2013-04-12 08:26:00,45.5,45.0,29.96,NNE,18,0.0,0.0,98,0.00,,,0.00,WeatherCatV1.13B119,2013-04-12 13:26:00,
2013-04-12 08:31:00,46.0,45.2,29.96,NNE,18,0.0,0.0,97,0.00,,,0.00,WeatherCatV1.13B119,2013-04-12 13:31:00,
2013-04-12 08:36:00,46.6,45.8,29.96,NNE,18,0.0,0.0,97,0.00,,,0.00,WeatherCatV1.13B119,2013-04-12 13:36:00,
2013-04-12 08:41:00,47.3,46.2,29.96,NNE,18,0.0,0.0,96,0.00,,,0.00,WeatherCatV1.13B119,2013-04-12 13:41:00,
2013-04-12 08:46:00,48.1,47.0,29.97,SE,130,0.0,0.0,96,0.00,,,0.00,WeatherCatV1.13B119,2013-04-12 13:46:00,
2013-04-12 08:51:00,48.8,47.2,29.96,SE,129,0.0,0.0,94,0.00,,,0.00,WeatherCatV1.13B119,2013-04-12 13:51:00,
2013-04-12 08:56:00,49.5,47.3,29.97,SE,125,0.0,0.0,92,0.00,,,0.00,WeatherCatV1.13B119,2013-04-12 13:56:00,
2013-04-12 09:01:00,50.0,47.2,29.97,ESE,102,0.0,1.0,90,0.00,,,0.00,WeatherCatV1.13B119,2013-04-12 14:01:00,
2013-04-12 09:06:00,50.5,47.4,29.97,ESE,103,1.0,2.0,89,0.00,,,0.00,WeatherCatV1.13B119,2013-04-12 14:06:00,
2013-04-12 09:11:00,51.2,47.8,29.97,ESE,115,1.0,2.0,88,0.00,,,0.00,WeatherCatV1.13B119,2013-04-12 14:11:00,
2013-04-12 09:16:00,51.9,47.5,29.97,East,98,0.0,2.0,85,0.00,,,0.00,WeatherCatV1.13B119,2013-04-12 14:16:00,
2013-04-12 09:21:00,52.5,48.1,29.97,ESE,105,0.0,1.0,85,0.00,,,0.00,WeatherCatV1.13B119,2013-04-12 14:21:00,
2013-04-12 09:26:00,53.0,47.7,29.97,ESE,110,1.0,1.0,82,0.00,,,0.00,WeatherCatV1.13B119,2013-04-12 14:26:00,
2013-04-12 09:31:00,53.6,47.9,29.97,East,100,1.0,2.0,81,0.00,,,0.00,WeatherCatV1.13B119,2013-04-12 14:31:00,
2013-04-12 09:36:00,54.4,48.4,29.97,ESE,115,0.0,2.0,80,0.00,,,0.00,WeatherCatV1.13B119,2013-04-12 14:36:00,
2013-04-12 09:41:00,55.5,48.4,29.98,ESE,116,1.0,1.0,77,0.00,,,0.00,WeatherCatV1.13B119,2013-04-12 14:41:00,
2013-04-12 09:46:00,56.4,48.6,29.98,ESE,113,1.0,2.0,75,0.00,,,0.00,WeatherCatV1.13B119,2013-04-12 14:46:00,
2013-04-12 09:51:00,57.3,48.3,29.98,ESE,108,2.0,3.0,72,0.00,,,0.00,WeatherCatV1.13B119,2013-04-12 14:51:00,
2013-04-12 09:56:00,58.0,48.3,29.98,ESE,109,1.0,2.0,70,0.00,,,0.00,WeatherCatV1.13B119,2013-04-12 14:56:00,
2013-04-12 10:01:00,59.0,47.7,29.98,ESE,107,0.0,2.0,66,0.00,,,0.00,WeatherCatV1.13B119,2013-04-12 15:01:00,
2013-04-12 10:06:00,59.9,47.7,29.98,ESE,104,0.0,2.0,64,0.00,,,0.00,WeatherCatV1.13B119,2013-04-12 15:06:00,
2013-04-12 10:11:00,61.1,48.8,29.98,ESE,115,1.0,2.0,64,0.00,,,0.00,WeatherCatV1.13B119,2013-04-12 15:11:00,
2013-04-12 10:16:00,61.8,48.6,29.98,East,99,0.0,1.0,62,0.00,,,0.00,WeatherCatV1.13B119,2013-04-12 15:16:00,
2013-04-12 10:21:00,62.9,48.8,29.98,ESE,111,0.0,1.0,60,0.00,,,0.00,WeatherCatV1.13B119,2013-04-12 15:21:00,
2013-04-12 10:26:00,64.1,49.9,29.98,ESE,103,1.0,1.0,60,0.00,,,0.00,WeatherCatV1.13B119,2013-04-12 15:26:00,
2013-04-12 10:31:00,65.0,48.9,29.98,East,98,0.0,2.0,56,0.00,,,0.00,WeatherCatV1.13B119,2013-04-12 15:31:00,
2013-04-12 10:36:00,65.6,48.5,29.98,ESE,110,1.0,2.0,54,0.00,,,0.00,WeatherCatV1.13B119,2013-04-12 15:36:00,
2013-04-12 10:41:00,66.3,49.1,29.98,East,88,0.0,2.0,54,0.00,,,0.00,WeatherCatV1.13B119,2013-04-12 15:41:00,
2013-04-12 10:46:00,67.1,48.4,29.98,SE,143,0.0,2.0,51,0.00,,,0.00,WeatherCatV1.13B119,2013-04-12 15:46:00,
2013-04-12 10:51:00,67.7,47.8,29.98,East,84,1.0,1.0,49,0.00,,,0.00,WeatherCatV1.13B119,2013-04-12 15:51:00,
2013-04-12 10:56:00,68.2,48.8,29.98,ESE,113,0.0,2.0,50,0.00,,,0.00,WeatherCatV1.13B119,2013-04-12 15:56:00,
2013-04-12 11:01:00,69.0,48.5,29.98,East,96,0.0,2.0,48,0.00,,,0.00,WeatherCatV1.13B119,2013-04-12 16:01:00,
2013-04-12 11:06:00,69.7,51.3,29.98,SE,142,3.0,4.0,52,0.00,,,0.00,WeatherCatV1.13B119,2013-04-12 16:06:00,
2013-04-12 11:11:00,70.5,48.1,29.98,SSE,150,1.0,5.0,45,0.00,,,0.00,WeatherCatV1.13B119,2013-04-12 16:11:00,
2013-04-12 11:16:00,70.9,47.9,29.98,SE,141,2.0,2.0,44,0.00,,,0.00,WeatherCatV1.13B119,2013-04-12 16:16:00,
2013-04-12 11:21:00,71.6,49.1,29.98,East,101,3.0,3.0,45,0.00,,,0.00,WeatherCatV1.13B119,2013-04-12 16:21:00,
2013-04-12 11:26:00,72.1,47.7,29.98,SSE,159,1.0,5.0,42,0.00,,,0.00,WeatherCatV1.13B119,2013-04-12 16:26:00,
2013-04-12 11:31:00,72.5,47.4,29.98,ESE,119,4.0,5.0,41,0.00,,,0.00,WeatherCatV1.13B119,2013-04-12 16:31:00,
2013-04-12 11:36:00,72.6,48.2,29.98,SE,136,2.0,3.0,42,0.00,,,0.00,WeatherCatV1.13B119,2013-04-12 16:36:00,
2013-04-12 11:41:00,73.2,48.1,29.98,SSE,164,2.0,3.0,41,0.00,,,0.00,WeatherCatV1.13B119,2013-04-12 16:41:00,
2013-04-12 11:46:00,74.1,46.1,29.98,SSE,155,3.0,4.0,37,0.00,,,0.00,WeatherCatV1.13B119,2013-04-12 16:46:00,
2013-04-12 11:51:00,74.4,47.1,29.98,ESE,115,2.0,3.0,38,0.00,,,0.00,WeatherCatV1.13B119,2013-04-12 16:51:00,
2013-04-12 11:56:00,74.5,48.6,29.97,East,96,2.0,5.0,40,0.00,,,0.00,WeatherCatV1.13B119,2013-04-12 16:56:00,
2013-04-12 12:01:00,74.8,47.5,29.97,South,173,3.0,4.0,38,0.00,,,0.00,WeatherCatV1.13B119,2013-04-12 17:01:00,
2013-04-12 12:06:00,75.5,47.4,29.97,SSE,153,3.0,5.0,37,0.00,,,0.00,WeatherCatV1.13B119,2013-04-12 17:06:00,
2013-04-12 12:11:00,75.9,47.7,29.97,ESE,108,5.0,5.0,37,0.00,,,0.00,WeatherCatV1.13B119,2013-04-12 17:11:00,
2013-04-12 12:16:00,75.9,45.5,29.97,South,185,2.0,4.0,34,0.00,,,0.00,WeatherCatV1.13B119,2013-04-12 17:16:00,
2013-04-12 12:21:00,76.2,46.5,29.97,SE,125,1.0,2.0,35,0.00,,,0.00,WeatherCatV1.13B119,2013-04-12 17:21:00,
2013-04-12 12:26:00,76.9,47.1,29.97,SE,145,1.0,3.0,35,0.00,,,0.00,WeatherCatV1.13B119,2013-04-12 17:26:00,
2013-04-12 12:31:00,77.3,45.1,29.96,ESE,122,2.0,4.0,32,0.00,,,0.00,WeatherCatV1.13B119,2013-04-12 17:31:00,
2013-04-12 12:36:00,77.1,46.5,29.96,SSE,162,3.0,4.0,34,0.00,,,0.00,WeatherCatV1.13B119,2013-04-12 17:36:00,
2013-04-12 12:41:00,77.2,44.2,29.96,SSW,195,0.0,4.0,31,0.00,,,0.00,WeatherCatV1.13B119,2013-04-12 17:41:00,
2013-04-12 12:46:00,77.8,44.7,29.96,ESE,113,3.0,5.0,31,0.00,,,0.00,WeatherCatV1.13B119,2013-04-12 17:46:00,
2013-04-12 12:51:00,77.6,44.5,29.95,ESE,120,1.0,3.0,31,0.00,,,0.00,WeatherCatV1.13B119,2013-04-12 17:51:00,
2013-04-12 12:56:00,78.4,46.1,29.95,SSE,155,2.0,4.0,32,0.00,,,0.00,WeatherCatV1.13B119,2013-04-12 17:56:00,
2013-04-12 13:01:00,79.3,45.2,29.95,SSE,154,3.0,5.0,30,0.00,,,0.00,WeatherCatV1.13B119,2013-04-12 18:01:00,
2013-04-12 13:06:00,78.7,42.8,29.95,SW,219,3.0,3.0,28,0.00,,,0.00,WeatherCatV1.13B119,2013-04-12 18:06:00,
2013-04-12 13:11:00,78.6,42.7,29.94,ESE,108,3.0,5.0,28,0.00,,,0.00,WeatherCatV1.13B119,2013-04-12 18:11:00,
2013-04-12 13:16:00,79.0,43.1,29.94,SE,139,2.0,5.0,28,0.00,,,0.00,WeatherCatV1.13B119,2013-04-12 18:16:00,
2013-04-12 13:22:00,79.4,44.3,29.94,SE,134,2.0,4.0,29,0.00,,,0.00,WeatherCatV1.13B119,2013-04-12 18:22:00,
2013-04-12 13:25:00,79.6,44.5,29.93,SE,131,2.0,4.0,29,0.00,,,0.00,WeatherCatV1.13B119,2013-04-12 18:25:00,
2013-04-12 13:27:00,79.8,45.6,29.93,SW,229,3.0,4.0,30,0.00,,,0.00,WeatherCatV1.13B119,2013-04-12 18:27:00,
2013-04-12 13:30:00,79.7,42.7,29.93,SE,133,2.0,7.0,27,0.00,,,0.00,WeatherCatV1.13B119,2013-04-12 18:30:00,
2013-04-12 13:35:00,79.7,44.6,29.93,SE,134,2.0,6.0,29,0.00,,,0.00,WeatherCatV1.13B119,2013-04-12 18:35:00,
2013-04-12 13:40:00,79.9,43.9,29.93,SE,140,3.0,5.0,28,0.00,,,0.00,WeatherCatV1.13B119,2013-04-12 18:40:00,
2013-04-12 13:45:00,80.4,43.3,29.92,SE,136,3.0,4.0,27,0.00,,,0.00,WeatherCatV1.13B119,2013-04-12 18:45:00,
2013-04-12 13:50:00,80.8,44.6,29.92,SE,133,3.0,3.0,28,0.00,,,0.00,WeatherCatV1.13B119,2013-04-12 18:50:00,
2013-04-12 13:55:00,80.4,44.3,29.92,SE,132,3.0,3.0,28,0.00,,,0.00,WeatherCatV1.13B119,2013-04-12 18:55:00,
2013-04-12 14:00:00,81.4,43.2,29.92,SSE,155,3.0,3.0,26,0.00,,,0.00,WeatherCatV1.13B119,2013-04-12 19:00:00,
2013-04-12 14:05:00,81.9,42.6,29.91,SE,133,2.0,2.0,25,0.00,,,0.00,WeatherCatV1.13B119,2013-04-12 19:05:00,
2013-04-12 14:10:00,81.8,45.5,29.91,SE,127,2.0,5.0,28,0.00,,,0.00,WeatherCatV1.13B119,2013-04-12 19:10:00,
2013-04-12 14:15:00,81.3,45.1,29.91,ESE,122,3.0,7.0,28,0.00,,,0.00,WeatherCatV1.13B119,2013-04-12 19:15:00,
2013-04-12 14:27:00,80.5,43.4,29.91,ESE,108,3.0,3.0,27,0.00,,,0.00,WeatherCatV1.13B119,2013-04-12 19:27:00,
2013-04-12 14:28:00,81.8,43.5,29.90,ESE,110,2.0,5.0,26,0.00,,,0.00,WeatherCatV1.13B119,2013-04-12 19:28:00,
2013-04-12 14:33:00,81.3,45.1,29.90,ESE,122,2.0,7.0,28,0.00,,,0.00,WeatherCatV1.13B119,2013-04-12 19:33:00,
2013-04-12 14:38:00,81.0,44.8,29.90,SE,138,1.0,4.0,28,0.00,,,0.00,WeatherCatV1.13B119,2013-04-12 19:38:00,
2013-04-12 14:41:00,81.0,44.8,29.89,East,84,1.0,4.0,28,0.00,,,0.00,WeatherCatV1.13B119,2013-04-12 19:41:00,
2013-04-12 14:46:00,81.5,43.3,29.90,ESE,122,3.0,4.0,26,0.00,,,0.00,WeatherCatV1.13B119,2013-04-12 19:46:00,
2013-04-12 14:51:00,81.6,42.3,29.89,South,179,4.0,5.0,25,0.00,,,0.00,WeatherCatV1.13B119,2013-04-12 19:51:00,
2013-04-12 14:56:00,82.4,43.0,29.89,SSE,158,2.0,3.0,25,0.00,,,0.00,WeatherCatV1.13B119,2013-04-12 19:56:00,
2013-04-12 15:01:00,83.0,44.6,29.88,ESE,107,2.0,5.0,26,0.00,,,0.00,WeatherCatV1.13B119,2013-04-12 20:01:00,
2013-04-12 15:06:00,82.7,42.2,29.88,SSE,157,3.0,6.0,24,0.00,,,0.00,WeatherCatV1.13B119,2013-04-12 20:06:00,
2013-04-12 15:11:00,82.4,39.7,29.88,ESE,114,0.0,7.0,22,0.00,,,0.00,WeatherCatV1.13B119,2013-04-12 20:11:00,
2013-04-12 15:16:00,82.0,42.7,29.88,East,96,4.0,5.0,25,0.00,,,0.00,WeatherCatV1.13B119,2013-04-12 20:16:00,
2013-04-12 15:21:00,82.4,43.0,29.88,ESE,114,5.0,6.0,25,0.00,,,0.00,WeatherCatV1.13B119,2013-04-12 20:21:00,
2013-04-12 15:26:00,81.9,41.5,29.87,ESE,106,4.0,4.0,24,0.00,,,0.00,WeatherCatV1.13B119,2013-04-12 20:26:00,
2013-04-12 15:31:00,82.4,43.0,29.87,SSE,150,3.0,4.0,25,0.00,,,0.00,WeatherCatV1.13B119,2013-04-12 20:31:00,
2013-04-12 15:36:00,83.1,41.4,29.86,SE,128,2.0,5.0,23,0.00,,,0.00,WeatherCatV1.13B119,2013-04-12 20:36:00,
2013-04-12 15:41:00,82.9,41.3,29.86,SE,130,4.0,5.0,23,0.00,,,0.00,WeatherCatV1.13B119,2013-04-12 20:41:00,
2013-04-12 15:46:00,82.3,42.9,29.86,SSE,164,3.0,4.0,25,0.00,,,0.00,WeatherCatV1.13B119,2013-04-12 20:46:00,
2013-04-12 15:51:00,83.0,42.5,29.85,SE,128,1.0,2.0,24,0.00,,,0.00,WeatherCatV1.13B119,2013-04-12 20:51:00,
2013-04-12 15:56:00,82.7,41.1,29.85,East,96,6.0,8.0,23,0.00,,,0.00,WeatherCatV1.13B119,2013-04-12 20:56:00,
2013-04-12 16:01:00,82.0,40.5,29.85,SE,124,3.0,8.0,23,0.00,,,0.00,WeatherCatV1.13B119,2013-04-12 21:01:00,
2013-04-12 16:06:00,82.7,42.2,29.85,SSE,161,3.0,6.0,24,0.00,,,0.00,WeatherCatV1.13B119,2013-04-12 21:06:00,
2013-04-12 16:11:00,82.9,40.1,29.84,SE,127,3.0,8.0,22,0.00,,,0.00,WeatherCatV1.13B119,2013-04-12 21:11:00,
2013-04-12 16:16:00,82.7,41.1,29.84,SSE,151,4.0,5.0,23,0.00,,,0.00,WeatherCatV1.13B119,2013-04-12 21:16:00,
2013-04-12 16:21:00,83.2,43.7,29.84,South,169,4.0,7.0,25,0.00,,,0.00,WeatherCatV1.13B119,2013-04-12 21:21:00,
2013-04-12 16:26:00,83.3,40.5,29.84,SE,139,2.0,5.0,22,0.00,,,0.00,WeatherCatV1.13B119,2013-04-12 21:26:00,
2013-04-12 16:31:00,83.5,42.9,29.84,SW,233,1.0,3.0,24,0.00,,,0.00,WeatherCatV1.13B119,2013-04-12 21:31:00,
2013-04-12 16:36:00,84.3,43.5,29.84,East,101,3.0,5.0,24,0.00,,,0.00,WeatherCatV1.13B119,2013-04-12 21:36:00,
2013-04-12 16:41:00,83.3,41.6,29.83,SE,127,3.0,3.0,23,0.00,,,0.00,WeatherCatV1.13B119,2013-04-12 21:41:00,
2013-04-12 16:46:00,82.9,41.3,29.83,SE,129,2.0,5.0,23,0.00,,,0.00,WeatherCatV1.13B119,2013-04-12 21:46:00,
2013-04-12 16:51:00,82.7,40.0,29.83,SW,230,4.0,5.0,22,0.00,,,0.00,WeatherCatV1.13B119,2013-04-12 21:51:00,
2013-04-12 16:56:00,83.1,41.4,29.83,ESE,102,4.0,4.0,23,0.00,,,0.00,WeatherCatV1.13B119,2013-04-12 21:56:00,
2013-04-12 17:01:00,82.5,42.0,29.82,ESE,113,3.0,5.0,24,0.00,,,0.00,WeatherCatV1.13B119,2013-04-12 22:01:00,
2013-04-12 17:06:00,82.5,43.1,29.82,ESE,120,3.0,7.0,25,0.00,,,0.00,WeatherCatV1.13B119,2013-04-12 22:06:00,
2013-04-12 17:11:00,82.4,43.0,29.83,SE,125,3.0,5.0,25,0.00,,,0.00,WeatherCatV1.13B119,2013-04-12 22:11:00,
2013-04-12 17:16:00,81.9,40.4,29.82,ESE,116,3.0,8.0,23,0.00,,,0.00,WeatherCatV1.13B119,2013-04-12 22:16:00,
2013-04-12 17:21:00,82.4,42.0,29.82,ESE,113,3.0,6.0,24,0.00,,,0.00,WeatherCatV1.13B119,2013-04-12 22:21:00,
2013-04-12 17:26:00,82.4,40.9,29.82,ESE,112,5.0,6.0,23,0.00,,,0.00,WeatherCatV1.13B119,2013-04-12 22:26:00,
2013-04-12 17:31:00,82.2,42.8,29.82,ENE,77,7.0,7.0,25,0.00,,,0.00,WeatherCatV1.13B119,2013-04-12 22:31:00,
2013-04-12 17:36:00,81.4,41.1,29.82,ENE,61,2.0,9.0,24,0.00,,,0.00,WeatherCatV1.13B119,2013-04-12 22:36:00,
2013-04-12 17:41:00,81.7,41.4,29.82,ESE,108,3.0,6.0,24,0.00,,,0.00,WeatherCatV1.13B119,2013-04-12 22:41:00,
2013-04-12 17:46:00,82.2,40.7,29.82,South,173,3.0,3.0,23,0.00,,,0.00,WeatherCatV1.13B119,2013-04-12 22:46:00,
2013-04-12 17:51:00,82.1,41.7,29.82,SSW,192,2.0,3.0,24,0.00,,,0.00,WeatherCatV1.13B119,2013-04-12 22:51:00,
2013-04-12 17:56:00,82.4,39.7,29.82,SSE,148,3.0,5.0,22,0.00,,,0.00,WeatherCatV1.13B119,2013-04-12 22:56:00,
2013-04-12 18:01:00,81.7,40.3,29.82,SE,132,3.0,5.0,23,0.00,,,0.00,WeatherCatV1.13B119,2013-04-12 23:01:00,
2013-04-12 18:05:00,81.3,41.0,29.82,ESE,113,3.0,5.0,24,0.00,,,0.00,WeatherCatV1.13B119,2013-04-12 23:05:00,
2013-04-12 18:06:00,81.1,40.9,29.82,ESE,108,4.0,5.0,24,0.00,,,0.00,WeatherCatV1.13B119,2013-04-12 23:06:00,
2013-04-12 18:10:00,80.9,40.7,29.82,ESE,108,3.0,6.0,24,0.00,,,0.00,WeatherCatV1.13B119,2013-04-12 23:10:00,
2013-04-12 18:15:00,80.9,40.7,29.82,ESE,108,3.0,6.0,24,0.00,,,0.00,WeatherCatV1.13B119,2013-04-12 23:15:00,
2013-04-12 18:20:00,80.9,40.7,29.82,ESE,108,3.0,6.0,24,0.00,,,0.00,WeatherCatV1.13B119,2013-04-12 23:20:00,
2013-04-12 18:25:00,80.9,40.7,29.82,ESE,108,3.0,6.0,24,0.00,,,0.00,WeatherCatV1.13B119,2013-04-12 23:25:00,
2013-04-12 18:30:00,80.9,40.7,29.82,ESE,108,3.0,6.0,24,0.00,,,0.00,WeatherCatV1.13B119,2013-04-12 23:30:00,
2013-04-12 18:35:00,80.9,40.7,29.82,ESE,108,3.0,6.0,24,0.00,,,0.00,WeatherCatV1.13B119,2013-04-12 23:35:00,
2013-04-12 18:40:00,80.8,42.7,29.82,ESE,112,3.0,7.0,26,0.00,,,0.00,WeatherCatV1.13B119,2013-04-12 23:40:00,
2013-04-12 18:45:00,80.8,42.7,29.82,ESE,112,3.0,7.0,26,0.00,,,0.00,WeatherCatV1.13B119,2013-04-12 23:45:00,
2013-04-12 18:50:00,80.8,42.7,29.82,ESE,112,3.0,7.0,26,0.00,,,0.00,WeatherCatV1.13B119,2013-04-12 23:50:00,
2013-04-12 18:55:00,80.8,42.7,29.82,ESE,112,3.0,7.0,26,0.00,,,0.00,WeatherCatV1.13B119,2013-04-12 23:55:00,
2013-04-12 19:00:00,80.8,42.7,29.82,ESE,112,3.0,7.0,26,0.00,,,0.00,WeatherCatV1.13B119,2013-04-13 00:00:00,
2013-04-12 19:05:00,80.8,42.7,29.82,ESE,112,3.0,7.0,26,0.00,,,0.00,WeatherCatV1.13B119,2013-04-13 00:05:00,
2013-04-12 19:10:00,78.2,40.5,29.82,SE,135,2.0,6.0,26,0.00,,,0.00,WeatherCatV1.13B119,2013-04-13 00:10:00,
2013-04-12 19:15:00,78.2,40.5,29.82,SE,135,2.0,6.0,26,0.00,,,0.00,WeatherCatV1.13B119,2013-04-13 00:15:00,
2013-04-12 19:20:00,78.2,40.5,29.82,SE,135,2.0,6.0,26,0.00,,,0.00,WeatherCatV1.13B119,2013-04-13 00:20:00,
2013-04-12 19:25:00,78.2,40.5,29.82,SE,135,2.0,6.0,26,0.00,,,0.00,WeatherCatV1.13B119,2013-04-13 00:25:00,
2013-04-12 19:30:00,78.2,40.5,29.82,SE,135,2.0,6.0,26,0.00,,,0.00,WeatherCatV1.13B119,2013-04-13 00:30:00,
2013-04-12 19:35:00,78.2,40.5,29.82,SE,135,2.0,6.0,26,0.00,,,0.00,WeatherCatV1.13B119,2013-04-13 00:35:00,
2013-04-12 19:40:00,75.8,42.1,29.82,SE,135,1.0,5.0,30,0.00,,,0.00,WeatherCatV1.13B119,2013-04-13 00:40:00,
2013-04-12 19:45:00,75.8,42.1,29.82,SE,135,1.0,5.0,30,0.00,,,0.00,WeatherCatV1.13B119,2013-04-13 00:45:00,
2013-04-12 19:50:00,75.8,42.1,29.82,SE,135,1.0,5.0,30,0.00,,,0.00,WeatherCatV1.13B119,2013-04-13 00:50:00,
2013-04-12 19:55:00,75.8,42.1,29.82,SE,135,1.0,5.0,30,0.00,,,0.00,WeatherCatV1.13B119,2013-04-13 00:55:00,
2013-04-12 20:09:00,75.8,42.1,29.82,SE,135,1.0,5.0,30,0.00,,,0.00,WeatherCatV1.13B119,2013-04-13 01:09:00,
2013-04-12 20:14:00,72.1,44.4,29.83,East,95,0.0,1.0,37,0.00,,,0.00,WeatherCatV1.13B119,2013-04-13 01:14:00,
2013-04-12 20:19:00,71.2,42.9,29.83,East,93,0.0,0.0,36,0.00,,,0.00,WeatherCatV1.13B119,2013-04-13 01:19:00,
2013-04-12 20:24:00,70.4,44.2,29.84,East,94,0.0,1.0,39,0.00,,,0.00,WeatherCatV1.13B119,2013-04-13 01:24:00,
2013-04-12 20:29:00,70.2,43.4,29.84,East,94,2.0,3.0,38,0.00,,,0.00,WeatherCatV1.13B119,2013-04-13 01:29:00,
2013-04-12 20:34:00,70.2,44.1,29.84,East,94,2.0,2.0,39,0.00,,,0.00,WeatherCatV1.13B119,2013-04-13 01:34:00,
2013-04-12 20:39:00,70.0,43.9,29.84,East,98,3.0,3.0,39,0.00,,,0.00,WeatherCatV1.13B119,2013-04-13 01:39:00,
2013-04-12 20:44:00,69.9,44.5,29.84,ESE,102,2.0,3.0,40,0.00,,,0.00,WeatherCatV1.13B119,2013-04-13 01:44:00,
2013-04-12 20:49:00,69.8,45.0,29.84,East,101,1.0,3.0,41,0.00,,,0.00,WeatherCatV1.13B119,2013-04-13 01:49:00,
2013-04-12 20:54:00,69.6,44.8,29.84,East,94,2.0,3.0,41,0.00,,,0.00,WeatherCatV1.13B119,2013-04-13 01:54:00,
2013-04-12 20:59:00,69.4,45.3,29.85,ESE,107,2.0,2.0,42,0.00,,,0.00,WeatherCatV1.13B119,2013-04-13 01:59:00,
2013-04-12 21:04:00,69.0,45.6,29.85,ESE,103,0.0,2.0,43,0.00,,,0.00,WeatherCatV1.13B119,2013-04-13 02:04:00,
2013-04-12 21:09:00,68.5,46.3,29.85,ESE,103,0.0,0.0,45,0.00,,,0.00,WeatherCatV1.13B119,2013-04-13 02:09:00,
2013-04-12 21:14:00,68.2,46.0,29.85,ESE,103,0.0,1.0,45,0.00,,,0.00,WeatherCatV1.13B119,2013-04-13 02:14:00,
2013-04-12 21:19:00,68.0,45.9,29.85,East,101,1.0,1.0,45,0.00,,,0.00,WeatherCatV1.13B119,2013-04-13 02:19:00,
2013-04-12 21:24:00,68.0,46.4,29.86,ESE,104,0.0,3.0,46,0.00,,,0.00,WeatherCatV1.13B119,2013-04-13 02:24:00,
2013-04-12 21:29:00,68.2,46.6,29.86,ESE,103,3.0,3.0,46,0.00,,,0.00,WeatherCatV1.13B119,2013-04-13 02:29:00,
2013-04-12 21:34:00,68.1,45.9,29.86,East,97,0.0,2.0,45,0.00,,,0.00,WeatherCatV1.13B119,2013-04-13 02:34:00,
2013-04-12 21:39:00,67.9,45.8,29.86,ESE,105,2.0,3.0,45,0.00,,,0.00,WeatherCatV1.13B119,2013-04-13 02:39:00,
2013-04-12 21:44:00,68.0,45.9,29.86,ESE,105,1.0,3.0,45,0.00,,,0.00,WeatherCatV1.13B119,2013-04-13 02:44:00,
2013-04-12 21:49:00,67.9,45.8,29.87,ESE,106,2.0,3.0,45,0.00,,,0.00,WeatherCatV1.13B119,2013-04-13 02:49:00,
2013-04-12 21:54:00,67.9,45.2,29.87,ESE,106,2.0,5.0,44,0.00,,,0.00,WeatherCatV1.13B119,2013-04-13 02:54:00,
2013-04-12 21:59:00,68.1,45.9,29.87,ESE,110,3.0,5.0,45,0.00,,,0.00,WeatherCatV1.13B119,2013-04-13 02:59:00,
2013-04-12 22:04:00,68.1,45.9,29.87,ESE,103,2.0,3.0,45,0.00,,,0.00,WeatherCatV1.13B119,2013-04-13 03:04:00,
2013-04-12 22:09:00,67.8,46.3,29.88,ESE,110,1.0,2.0,46,0.00,,,0.00,WeatherCatV1.13B119,2013-04-13 03:09:00,
2013-04-12 22:14:00,67.7,46.2,29.88,SE,125,1.0,2.0,46,0.00,,,0.00,WeatherCatV1.13B119,2013-04-13 03:14:00,
2013-04-12 22:19:00,67.5,46.0,29.88,SE,129,0.0,1.0,46,0.00,,,0.00,WeatherCatV1.13B119,2013-04-13 03:19:00,
2013-04-12 22:24:00,67.3,46.9,29.88,ESE,118,1.0,2.0,48,0.00,,,0.00,WeatherCatV1.13B119,2013-04-13 03:24:00,
2013-04-12 22:29:00,67.0,46.1,29.89,ESE,120,0.0,1.0,47,0.00,,,0.00,WeatherCatV1.13B119,2013-04-13 03:29:00,
2013-04-12 22:34:00,66.8,45.9,29.88,SE,129,1.0,2.0,47,0.00,,,0.00,WeatherCatV1.13B119,2013-04-13 03:34:00,
2013-04-12 22:39:00,66.7,46.4,29.89,SE,138,1.0,1.0,48,0.00,,,0.00,WeatherCatV1.13B119,2013-04-13 03:39:00,
2013-04-12 22:44:00,66.6,46.3,29.89,SE,141,2.0,3.0,48,0.00,,,0.00,WeatherCatV1.13B119,2013-04-13 03:44:00,
2013-04-12 22:49:00,66.6,45.7,29.89,SE,131,1.0,2.0,47,0.00,,,0.00,WeatherCatV1.13B119,2013-04-13 03:49:00,
2013-04-12 22:54:00,66.5,46.2,29.90,ESE,104,1.0,4.0,48,0.00,,,0.00,WeatherCatV1.13B119,2013-04-13 03:54:00,
2013-04-12 22:59:00,66.4,45.5,29.90,SE,124,3.0,4.0,47,0.00,,,0.00,WeatherCatV1.13B119,2013-04-13 03:59:00,
2013-04-12 23:00:00,66.4,45.5,29.90,SE,140,1.0,3.0,47,0.00,,,0.00,WeatherCatV1.13B119,2013-04-13 04:00:00,
2013-04-12 23:01:00,66.4,46.7,29.90,ESE,113,2.0,3.0,49,0.00,,,0.00,WeatherCatV1.13B119,2013-04-13 04:01:00,
2013-04-12 23:06:00,66.2,45.9,29.90,East,101,2.0,4.0,48,0.00,,,0.00,WeatherCatV1.13B119,2013-04-13 04:06:00,
2013-04-12 23:11:00,66.1,45.8,29.90,East,94,4.0,5.0,48,0.00,,,0.00,WeatherCatV1.13B119,2013-04-13 04:11:00,
2013-04-12 23:16:00,66.0,46.3,29.91,SE,129,1.0,3.0,49,0.00,,,0.00,WeatherCatV1.13B119,2013-04-13 04:16:00,
2013-04-12 23:21:00,65.9,46.7,29.91,SE,127,1.0,3.0,50,0.00,,,0.00,WeatherCatV1.13B119,2013-04-13 04:21:00,
2013-04-12 23:26:00,65.8,47.7,29.91,ESE,112,2.0,3.0,52,0.00,,,0.00,WeatherCatV1.13B119,2013-04-13 04:26:00,
2013-04-12 23:31:00,65.7,48.6,29.91,East,98,5.0,5.0,54,0.00,,,0.00,WeatherCatV1.13B119,2013-04-13 04:31:00,
2013-04-12 23:36:00,65.7,49.6,29.91,ESE,110,3.0,4.0,56,0.00,,,0.00,WeatherCatV1.13B119,2013-04-13 04:36:00,
2013-04-12 23:41:00,65.8,50.1,29.91,SW,226,3.0,3.0,57,0.00,,,0.00,WeatherCatV1.13B119,2013-04-13 04:41:00,
2013-04-12 23:46:00,65.9,50.7,29.91,SSE,152,1.0,4.0,58,0.00,,,0.00,WeatherCatV1.13B119,2013-04-13 04:46:00,
2013-04-12 23:51:00,65.9,50.2,29.91,SE,138,3.0,3.0,57,0.00,,,0.00,WeatherCatV1.13B119,2013-04-13 04:51:00,
2013-04-12 23:56:00,65.9,50.7,29.91,SSE,149,2.0,6.0,58,0.00,,,0.00,WeatherCatV1.13B119,2013-04-13 04:56:00,